Terminal Aerodrome Forecast
Issued by NWS Caribou, ME

Home | Current Version | Previous Version | Text Only | Print | Product List | Glossary On
Versions: 1 2 3 4 5 6 7 8 9 10 11 12 13 14 15 16 17 18 19 20 21 22
767
FTUS41 KCAR 171120
TAFCAR
TAF
KCAR 171120Z 1712/1812 VRB03KT P6SM SKC
     FM172100 21007KT P6SM BKN060
     FM180800 23007KT P6SM BKN035
     FM181000 25007KT P6SM SCT030
     FM181100 26007KT P6SM SCT250=

USA.gov is the U.S. government's official web portal to all federal, state and local government web resources and services.